Terminal Aerodrome Forecast
Issued by NWS St Louis, MO

Home | Current Version | Previous Version | Text Only | Print | Product List | Glossary On
Versions: 1 2 3 4 5 6 7 8 9 10 11 12 13 14 15 16 17 18 19 20 21 22 23 24
000
FTUS43 KLSX 190301 AAA
TAFSTL
TAF AMD
KSTL 190301Z 1903/2006 22007KT P6SM BKN120
     FM190400 23006KT P6SM VCTS SCT050CB BKN100
      TEMPO 1904/1906 6SM -SHRA BKN040
     FM190700 VRB04KT P6SM FEW040 SCT250
     FM191500 29006KT P6SM SCT050 BKN250
     FM200100 VRB04KT P6SM SKC=

USA.gov is the U.S. government's official web portal to all federal, state and local government web resources and services.